sensor_id;sensor_type;location;lat;lon;timestamp;P1;durP1;ratioP1;P2;durP2;ratioP2
76131;SDS011;64877;50.994;13.650;2023-01-16T00:01:11;2.50;;;0.90;;
76131;SDS011;64877;50.994;13.650;2023-01-16T00:03:36;2.78;;;0.73;;
76131;SDS011;64877;50.994;13.650;2023-01-16T00:06:02;1.23;;;0.50;;
76131;SDS011;64877;50.994;13.650;2023-01-16T00:08:27;2.67;;;0.40;;
76131;SDS011;64877;50.994;13.650;2023-01-16T00:10:53;2.60;;;0.70;;
76131;SDS011;64877;50.994;13.650;2023-01-16T00:13:18;2.00;;;0.55;;
76131;SDS011;64877;50.994;13.650;2023-01-16T00:15:47;1.73;;;0.50;;
76131;SDS011;64877;50.994;13.650;2023-01-16T00:18:15;2.58;;;0.60;;
76131;SDS011;64877;50.994;13.650;2023-01-16T00:20:40;2.00;;;0.60;;
76131;SDS011;64877;50.994;13.650;2023-01-16T00:23:05;2.30;;;0.73;;
76131;SDS011;64877;50.994;13.650;2023-01-16T00:25:31;2.95;;;0.80;;
76131;SDS011;64877;50.994;13.650;2023-01-16T00:27:57;5.63;;;1.02;;
76131;SDS011;64877;50.994;13.650;2023-01-16T00:30:22;4.18;;;1.10;;
76131;SDS011;64877;50.994;13.650;2023-01-16T00:32:48;2.80;;;0.80;;
76131;SDS011;64877;50.994;13.650;2023-01-16T00:35:13;4.95;;;1.30;;
76131;SDS011;64877;50.994;13.650;2023-01-16T00:37:38;3.00;;;0.98;;
76131;SDS011;64877;50.994;13.650;2023-01-16T00:40:04;3.22;;;0.90;;
76131;SDS011;64877;50.994;13.650;2023-01-16T00:42:30;2.80;;;1.05;;
76131;SDS011;64877;50.994;13.650;2023-01-16T00:44:55;3.60;;;1.50;;
76131;SDS011;64877;50.994;13.650;2023-01-16T00:47:21;4.65;;;1.63;;
76131;SDS011;64877;50.994;13.650;2023-01-16T00:49:46;2.75;;;1.00;;
76131;SDS011;64877;50.994;13.650;2023-01-16T00:52:11;3.65;;;0.85;;
76131;SDS011;64877;50.994;13.650;2023-01-16T00:54:37;2.10;;;0.52;;
76131;SDS011;64877;50.994;13.650;2023-01-16T00:57:02;3.13;;;0.70;;
76131;SDS011;64877;50.994;13.650;2023-01-16T00:59:28;3.25;;;1.33;;
76131;SDS011;64877;50.994;13.650;2023-01-16T01:01:53;6.03;;;1.83;;
76131;SDS011;64877;50.994;13.650;2023-01-16T01:04:18;6.32;;;1.48;;
76131;SDS011;64877;50.994;13.650;2023-01-16T01:06:44;4.90;;;1.40;;
76131;SDS011;64877;50.994;13.650;2023-01-16T01:09:09;5.93;;;0.90;;
76131;SDS011;64877;50.994;13.650;2023-01-16T01:11:34;2.47;;;1.00;;
76131;SDS011;64877;50.994;13.650;2023-01-16T01:14:00;3.45;;;1.00;;
76131;SDS011;64877;50.994;13.650;2023-01-16T01:16:25;1.50;;;0.68;;
76131;SDS011;64877;50.994;13.650;2023-01-16T01:18:51;3.63;;;0.70;;
76131;SDS011;64877;50.994;13.650;2023-01-16T01:21:16;3.53;;;0.88;;
76131;SDS011;64877;50.994;13.650;2023-01-16T01:23:42;2.30;;;0.75;;
76131;SDS011;64877;50.994;13.650;2023-01-16T01:26:11;3.28;;;0.73;;
76131;SDS011;64877;50.994;13.650;2023-01-16T01:28:38;3.83;;;0.82;;
76131;SDS011;64877;50.994;13.650;2023-01-16T01:31:08;2.08;;;0.73;;
76131;SDS011;64877;50.994;13.650;2023-01-16T01:33:35;3.03;;;0.85;;
76131;SDS011;64877;50.994;13.650;2023-01-16T01:36:01;3.78;;;0.88;;
76131;SDS011;64877;50.994;13.650;2023-01-16T01:38:27;4.22;;;0.75;;
76131;SDS011;64877;50.994;13.650;2023-01-16T01:40:52;2.65;;;1.02;;
76131;SDS011;64877;50.994;13.650;2023-01-16T01:43:18;3.30;;;0.77;;
76131;SDS011;64877;50.994;13.650;2023-01-16T01:45:49;2.08;;;0.77;;
76131;SDS011;64877;50.994;13.650;2023-01-16T01:48:24;2.83;;;1.33;;
76131;SDS011;64877;50.994;13.650;2023-01-16T01:56:25;2.25;;;0.82;;
76131;SDS011;64877;50.994;13.650;2023-01-16T01:58:56;1.30;;;0.60;;
76131;SDS011;64877;50.994;13.650;2023-01-16T02:01:25;5.38;;;1.20;;
76131;SDS011;64877;50.994;13.650;2023-01-16T02:03:57;2.40;;;0.80;;
76131;SDS011;64877;50.994;13.650;2023-01-16T02:06:27;3.42;;;0.82;;
76131;SDS011;64877;50.994;13.650;2023-01-16T02:08:57;1.85;;;0.70;;
76131;SDS011;64877;50.994;13.650;2023-01-16T02:11:30;2.83;;;1.08;;
76131;SDS011;64877;50.994;13.650;2023-01-16T02:14:11;2.90;;;0.63;;
76131;SDS011;64877;50.994;13.650;2023-01-16T02:16:38;4.20;;;0.88;;
76131;SDS011;64877;50.994;13.650;2023-01-16T02:41:14;4.45;;;0.70;;
76131;SDS011;64877;50.994;13.650;2023-01-16T02:49:18;2.75;;;0.50;;
76131;SDS011;64877;50.994;13.650;2023-01-16T02:51:50;1.65;;;0.40;;
76131;SDS011;64877;50.994;13.650;2023-01-16T02:54:27;3.83;;;0.60;;
76131;SDS011;64877;50.994;13.650;2023-01-16T02:57:14;3.78;;;0.80;;
76131;SDS011;64877;50.994;13.650;2023-01-16T02:59:45;1.35;;;0.40;;
76131;SDS011;64877;50.994;13.650;2023-01-16T03:04:46;3.70;;;1.50;;
76131;SDS011;64877;50.994;13.650;2023-01-16T03:15:10;6.43;;;1.73;;
76131;SDS011;64877;50.994;13.650;2023-01-16T03:17:56;4.80;;;1.92;;
76131;SDS011;64877;50.994;13.650;2023-01-16T03:25:58;4.85;;;1.40;;
76131;SDS011;64877;50.994;13.650;2023-01-16T03:36:51;2.35;;;1.02;;
76131;SDS011;64877;50.994;13.650;2023-01-16T03:39:19;4.57;;;1.00;;
76131;SDS011;64877;50.994;13.650;2023-01-16T03:41:47;2.25;;;0.60;;
76131;SDS011;64877;50.994;13.650;2023-01-16T03:44:22;2.28;;;0.75;;
76131;SDS011;64877;50.994;13.650;2023-01-16T03:46:54;1.65;;;0.60;;
76131;SDS011;64877;50.994;13.650;2023-01-16T03:49:25;1.63;;;0.57;;
76131;SDS011;64877;50.994;13.650;2023-01-16T03:51:57;2.83;;;0.70;;
76131;SDS011;64877;50.994;13.650;2023-01-16T03:57:00;5.00;;;0.80;;
76131;SDS011;64877;50.994;13.650;2023-01-16T03:59:33;2.67;;;1.00;;
76131;SDS011;64877;50.994;13.650;2023-01-16T04:02:04;3.63;;;0.80;;
76131;SDS011;64877;50.994;13.650;2023-01-16T04:04:51;4.82;;;0.80;;
76131;SDS011;64877;50.994;13.650;2023-01-16T04:07:23;2.58;;;0.77;;
76131;SDS011;64877;50.994;13.650;2023-01-16T04:09:56;2.15;;;0.82;;
76131;SDS011;64877;50.994;13.650;2023-01-16T04:12:24;5.43;;;1.00;;
76131;SDS011;64877;50.994;13.650;2023-01-16T04:14:57;3.33;;;1.05;;
76131;SDS011;64877;50.994;13.650;2023-01-16T04:17:27;5.13;;;0.90;;
76131;SDS011;64877;50.994;13.650;2023-01-16T04:19:54;2.58;;;0.93;;
76131;SDS011;64877;50.994;13.650;2023-01-16T04:22:22;1.95;;;0.98;;
76131;SDS011;64877;50.994;13.650;2023-01-16T04:24:52;3.33;;;0.90;;
76131;SDS011;64877;50.994;13.650;2023-01-16T04:27:20;1.90;;;0.70;;
76131;SDS011;64877;50.994;13.650;2023-01-16T04:29:46;3.40;;;1.10;;
76131;SDS011;64877;50.994;13.650;2023-01-16T04:32:12;3.53;;;0.93;;
76131;SDS011;64877;50.994;13.650;2023-01-16T04:34:37;2.67;;;0.93;;
76131;SDS011;64877;50.994;13.650;2023-01-16T04:37:03;5.82;;;1.20;;
76131;SDS011;64877;50.994;13.650;2023-01-16T04:39:29;4.57;;;0.90;;
76131;SDS011;64877;50.994;13.650;2023-01-16T04:41:54;1.50;;;0.90;;
76131;SDS011;64877;50.994;13.650;2023-01-16T04:44:19;2.80;;;1.05;;
76131;SDS011;64877;50.994;13.650;2023-01-16T04:46:45;3.90;;;1.05;;
76131;SDS011;64877;50.994;13.650;2023-01-16T04:49:10;2.88;;;1.30;;
76131;SDS011;64877;50.994;13.650;2023-01-16T04:51:36;1.95;;;0.93;;
76131;SDS011;64877;50.994;13.650;2023-01-16T04:54:03;3.53;;;1.20;;
76131;SDS011;64877;50.994;13.650;2023-01-16T04:56:30;5.95;;;1.10;;
76131;SDS011;64877;50.994;13.650;2023-01-16T04:58:56;4.43;;;1.13;;
76131;SDS011;64877;50.994;13.650;2023-01-16T05:01:22;2.50;;;1.05;;
76131;SDS011;64877;50.994;13.650;2023-01-16T05:03:48;5.43;;;1.48;;
76131;SDS011;64877;50.994;13.650;2023-01-16T05:06:13;4.78;;;1.00;;
76131;SDS011;64877;50.994;13.650;2023-01-16T05:08:38;6.38;;;0.90;;
76131;SDS011;64877;50.994;13.650;2023-01-16T05:11:04;2.00;;;0.98;;
76131;SDS011;64877;50.994;13.650;2023-01-16T05:13:30;1.70;;;0.90;;
76131;SDS011;64877;50.994;13.650;2023-01-16T05:15:55;2.97;;;1.23;;
76131;SDS011;64877;50.994;13.650;2023-01-16T05:18:21;2.60;;;1.17;;
76131;SDS011;64877;50.994;13.650;2023-01-16T05:20:47;3.90;;;1.33;;
76131;SDS011;64877;50.994;13.650;2023-01-16T05:23:13;1.98;;;1.13;;
76131;SDS011;64877;50.994;13.650;2023-01-16T05:25:38;5.45;;;1.50;;
76131;SDS011;64877;50.994;13.650;2023-01-16T05:28:04;4.22;;;1.30;;
76131;SDS011;64877;50.994;13.650;2023-01-16T05:30:30;3.25;;;1.40;;
76131;SDS011;64877;50.994;13.650;2023-01-16T05:32:56;4.18;;;1.45;;
76131;SDS011;64877;50.994;13.650;2023-01-16T05:35:21;3.95;;;1.15;;
76131;SDS011;64877;50.994;13.650;2023-01-16T05:37:46;3.65;;;1.42;;
76131;SDS011;64877;50.994;13.650;2023-01-16T05:40:12;6.60;;;1.90;;
76131;SDS011;64877;50.994;13.650;2023-01-16T05:42:38;3.63;;;1.75;;
76131;SDS011;64877;50.994;13.650;2023-01-16T05:45:07;4.70;;;1.48;;
76131;SDS011;64877;50.994;13.650;2023-01-16T05:47:33;4.53;;;1.58;;
76131;SDS011;64877;50.994;13.650;2023-01-16T05:49:58;3.13;;;1.50;;
76131;SDS011;64877;50.994;13.650;2023-01-16T05:52:24;4.35;;;1.42;;
76131;SDS011;64877;50.994;13.650;2023-01-16T05:54:51;4.93;;;1.55;;
76131;SDS011;64877;50.994;13.650;2023-01-16T05:57:18;9.38;;;1.95;;
76131;SDS011;64877;50.994;13.650;2023-01-16T05:59:43;2.45;;;1.45;;
76131;SDS011;64877;50.994;13.650;2023-01-16T06:02:11;3.50;;;1.35;;
76131;SDS011;64877;50.994;13.650;2023-01-16T06:04:37;3.15;;;1.90;;
76131;SDS011;64877;50.994;13.650;2023-01-16T06:07:02;3.63;;;1.60;;
76131;SDS011;64877;50.994;13.650;2023-01-16T06:09:28;3.40;;;1.40;;
76131;SDS011;64877;50.994;13.650;2023-01-16T06:11:53;3.45;;;1.65;;
76131;SDS011;64877;50.994;13.650;2023-01-16T06:14:19;4.90;;;1.52;;
76131;SDS011;64877;50.994;13.650;2023-01-16T06:16:44;2.58;;;1.60;;
76131;SDS011;64877;50.994;13.650;2023-01-16T06:19:09;3.95;;;1.42;;
76131;SDS011;64877;50.994;13.650;2023-01-16T06:21:35;4.30;;;1.85;;
76131;SDS011;64877;50.994;13.650;2023-01-16T06:24:00;2.65;;;1.50;;
76131;SDS011;64877;50.994;13.650;2023-01-16T06:26:26;5.45;;;1.73;;
76131;SDS011;64877;50.994;13.650;2023-01-16T06:28:51;2.85;;;1.13;;
76131;SDS011;64877;50.994;13.650;2023-01-16T06:31:17;1.80;;;1.20;;
76131;SDS011;64877;50.994;13.650;2023-01-16T06:33:42;2.42;;;1.50;;
76131;SDS011;64877;50.994;13.650;2023-01-16T06:36:08;6.53;;;1.77;;
76131;SDS011;64877;50.994;13.650;2023-01-16T06:38:33;5.80;;;1.30;;
76131;SDS011;64877;50.994;13.650;2023-01-16T06:40:58;3.55;;;1.65;;
76131;SDS011;64877;50.994;13.650;2023-01-16T06:43:27;3.13;;;1.42;;
76131;SDS011;64877;50.994;13.650;2023-01-16T06:45:53;2.72;;;1.23;;
76131;SDS011;64877;50.994;13.650;2023-01-16T06:48:19;2.95;;;1.58;;
76131;SDS011;64877;50.994;13.650;2023-01-16T06:50:45;3.20;;;1.45;;
76131;SDS011;64877;50.994;13.650;2023-01-16T06:53:11;3.38;;;1.27;;
76131;SDS011;64877;50.994;13.650;2023-01-16T06:55:37;2.78;;;1.58;;
76131;SDS011;64877;50.994;13.650;2023-01-16T06:58:03;4.53;;;1.58;;
76131;SDS011;64877;50.994;13.650;2023-01-16T07:00:29;3.97;;;1.40;;
76131;SDS011;64877;50.994;13.650;2023-01-16T07:02:55;2.28;;;1.25;;
76131;SDS011;64877;50.994;13.650;2023-01-16T07:05:21;3.70;;;1.60;;
76131;SDS011;64877;50.994;13.650;2023-01-16T07:07:50;4.72;;;1.45;;
76131;SDS011;64877;50.994;13.650;2023-01-16T07:10:16;3.00;;;1.35;;
76131;SDS011;64877;50.994;13.650;2023-01-16T07:12:45;5.15;;;1.42;;
76131;SDS011;64877;50.994;13.650;2023-01-16T07:15:10;2.33;;;1.33;;
76131;SDS011;64877;50.994;13.650;2023-01-16T07:17:54;2.10;;;1.40;;
76131;SDS011;64877;50.994;13.650;2023-01-16T07:20:38;3.45;;;1.30;;
76131;SDS011;64877;50.994;13.650;2023-01-16T07:23:24;3.20;;;1.35;;
76131;SDS011;64877;50.994;13.650;2023-01-16T07:25:53;4.25;;;1.45;;
76131;SDS011;64877;50.994;13.650;2023-01-16T07:28:20;4.88;;;1.48;;
76131;SDS011;64877;50.994;13.650;2023-01-16T07:30:46;2.38;;;1.30;;
76131;SDS011;64877;50.994;13.650;2023-01-16T07:33:13;4.82;;;1.75;;
76131;SDS011;64877;50.994;13.650;2023-01-16T07:35:39;6.10;;;1.63;;
76131;SDS011;64877;50.994;13.650;2023-01-16T07:38:04;2.63;;;1.08;;
76131;SDS011;64877;50.994;13.650;2023-01-16T07:40:30;3.42;;;1.52;;
76131;SDS011;64877;50.994;13.650;2023-01-16T07:42:55;3.80;;;1.20;;
76131;SDS011;64877;50.994;13.650;2023-01-16T07:45:21;5.82;;;1.20;;
76131;SDS011;64877;50.994;13.650;2023-01-16T07:47:46;3.85;;;1.17;;
76131;SDS011;64877;50.994;13.650;2023-01-16T07:50:11;5.93;;;1.42;;
76131;SDS011;64877;50.994;13.650;2023-01-16T07:52:37;2.85;;;0.85;;
76131;SDS011;64877;50.994;13.650;2023-01-16T07:55:02;2.53;;;1.13;;
76131;SDS011;64877;50.994;13.650;2023-01-16T07:57:28;4.20;;;0.80;;
76131;SDS011;64877;50.994;13.650;2023-01-16T07:59:53;1.90;;;1.08;;
76131;SDS011;64877;50.994;13.650;2023-01-16T08:02:19;2.50;;;0.82;;
76131;SDS011;64877;50.994;13.650;2023-01-16T08:04:45;3.28;;;0.77;;
76131;SDS011;64877;50.994;13.650;2023-01-16T08:07:11;1.77;;;0.63;;
76131;SDS011;64877;50.994;13.650;2023-01-16T08:09:36;3.03;;;0.88;;
76131;SDS011;64877;50.994;13.650;2023-01-16T08:12:02;2.33;;;0.95;;
76131;SDS011;64877;50.994;13.650;2023-01-16T08:14:27;1.70;;;0.68;;
76131;SDS011;64877;50.994;13.650;2023-01-16T08:16:53;2.83;;;0.70;;
76131;SDS011;64877;50.994;13.650;2023-01-16T08:19:18;2.38;;;0.63;;
76131;SDS011;64877;50.994;13.650;2023-01-16T08:21:43;11.73;;;0.90;;
76131;SDS011;64877;50.994;13.650;2023-01-16T08:24:09;3.00;;;0.65;;
76131;SDS011;64877;50.994;13.650;2023-01-16T08:26:37;3.60;;;0.82;;
76131;SDS011;64877;50.994;13.650;2023-01-16T08:29:03;3.35;;;0.85;;
76131;SDS011;64877;50.994;13.650;2023-01-16T08:31:29;2.38;;;0.60;;
76131;SDS011;64877;50.994;13.650;2023-01-16T08:33:55;3.13;;;1.05;;
76131;SDS011;64877;50.994;13.650;2023-01-16T08:36:21;3.30;;;0.93;;
76131;SDS011;64877;50.994;13.650;2023-01-16T08:38:49;2.42;;;0.85;;
76131;SDS011;64877;50.994;13.650;2023-01-16T08:41:15;0.98;;;0.65;;
76131;SDS011;64877;50.994;13.650;2023-01-16T08:43:59;7.15;;;0.85;;
76131;SDS011;64877;50.994;13.650;2023-01-16T08:46:52;3.13;;;0.90;;
76131;SDS011;64877;50.994;13.650;2023-01-16T08:49:47;2.63;;;0.88;;
76131;SDS011;64877;50.994;13.650;2023-01-16T08:52:32;2.25;;;0.63;;
76131;SDS011;64877;50.994;13.650;2023-01-16T08:54:58;2.50;;;0.70;;
76131;SDS011;64877;50.994;13.650;2023-01-16T08:57:25;2.58;;;0.70;;
76131;SDS011;64877;50.994;13.650;2023-01-16T08:59:51;3.47;;;0.68;;
76131;SDS011;64877;50.994;13.650;2023-01-16T09:02:16;5.57;;;0.82;;
76131;SDS011;64877;50.994;13.650;2023-01-16T09:04:44;2.25;;;0.70;;
76131;SDS011;64877;50.994;13.650;2023-01-16T09:07:09;3.88;;;0.80;;
76131;SDS011;64877;50.994;13.650;2023-01-16T09:09:35;1.73;;;0.60;;
76131;SDS011;64877;50.994;13.650;2023-01-16T09:12:00;2.05;;;0.65;;
76131;SDS011;64877;50.994;13.650;2023-01-16T09:14:44;3.20;;;0.85;;
76131;SDS011;64877;50.994;13.650;2023-01-16T09:17:10;1.67;;;0.73;;
76131;SDS011;64877;50.994;13.650;2023-01-16T09:19:35;3.78;;;0.80;;
76131;SDS011;64877;50.994;13.650;2023-01-16T09:22:04;3.17;;;0.90;;
76131;SDS011;64877;50.994;13.650;2023-01-16T09:24:33;2.55;;;0.70;;
76131;SDS011;64877;50.994;13.650;2023-01-16T09:26:59;2.42;;;0.65;;
76131;SDS011;64877;50.994;13.650;2023-01-16T09:29:25;3.33;;;0.90;;
76131;SDS011;64877;50.994;13.650;2023-01-16T09:31:51;1.52;;;0.88;;
76131;SDS011;64877;50.994;13.650;2023-01-16T09:34:17;2.00;;;0.73;;
76131;SDS011;64877;50.994;13.650;2023-01-16T09:36:42;2.35;;;0.85;;
76131;SDS011;64877;50.994;13.650;2023-01-16T09:39:08;3.70;;;0.68;;
76131;SDS011;64877;50.994;13.650;2023-01-16T09:41:35;1.33;;;0.57;;
76131;SDS011;64877;50.994;13.650;2023-01-16T09:44:34;2.92;;;1.02;;
76131;SDS011;64877;50.994;13.650;2023-01-16T09:46:59;4.50;;;0.60;;
76131;SDS011;64877;50.994;13.650;2023-01-16T09:49:31;1.90;;;0.77;;
76131;SDS011;64877;50.994;13.650;2023-01-16T09:52:05;3.00;;;1.00;;
76131;SDS011;64877;50.994;13.650;2023-01-16T09:54:56;4.22;;;1.13;;
76131;SDS011;64877;50.994;13.650;2023-01-16T09:57:45;1.80;;;0.55;;
76131;SDS011;64877;50.994;13.650;2023-01-16T10:00:32;6.43;;;1.00;;
76131;SDS011;64877;50.994;13.650;2023-01-16T10:03:01;1.42;;;0.50;;
76131;SDS011;64877;50.994;13.650;2023-01-16T10:05:28;2.67;;;0.60;;
76131;SDS011;64877;50.994;13.650;2023-01-16T10:08:45;2.58;;;0.40;;
76131;SDS011;64877;50.994;13.650;2023-01-16T10:24:25;6.60;;;0.77;;
76131;SDS011;64877;50.994;13.650;2023-01-16T10:27:13;1.83;;;0.50;;
76131;SDS011;64877;50.994;13.650;2023-01-16T10:29:41;2.58;;;0.70;;
76131;SDS011;64877;50.994;13.650;2023-01-16T10:32:35;6.32;;;0.70;;
76131;SDS011;64877;50.994;13.650;2023-01-16T10:35:26;1.35;;;0.50;;
76131;SDS011;64877;50.994;13.650;2023-01-16T10:37:56;2.95;;;0.70;;
76131;SDS011;64877;50.994;13.650;2023-01-16T10:40:40;4.97;;;0.60;;
76131;SDS011;64877;50.994;13.650;2023-01-16T10:43:14;3.53;;;0.80;;
76131;SDS011;64877;50.994;13.650;2023-01-16T10:46:06;6.65;;;0.70;;
76131;SDS011;64877;50.994;13.650;2023-01-16T10:48:58;3.08;;;0.82;;
76131;SDS011;64877;50.994;13.650;2023-01-16T10:51:42;9.25;;;0.90;;
76131;SDS011;64877;50.994;13.650;2023-01-16T10:54:07;4.68;;;1.20;;
76131;SDS011;64877;50.994;13.650;2023-01-16T10:56:33;4.45;;;1.20;;
76131;SDS011;64877;50.994;13.650;2023-01-16T10:59:02;5.05;;;1.08;;
76131;SDS011;64877;50.994;13.650;2023-01-16T11:01:27;4.20;;;1.00;;
76131;SDS011;64877;50.994;13.650;2023-01-16T11:03:56;2.42;;;0.73;;
76131;SDS011;64877;50.994;13.650;2023-01-16T11:06:25;1.98;;;0.63;;
76131;SDS011;64877;50.994;13.650;2023-01-16T11:08:53;2.80;;;0.65;;
76131;SDS011;64877;50.994;13.650;2023-01-16T11:11:27;1.25;;;0.45;;
76131;SDS011;64877;50.994;13.650;2023-01-16T11:14:18;2.50;;;0.82;;
76131;SDS011;64877;50.994;13.650;2023-01-16T11:22:52;5.03;;;0.68;;
76131;SDS011;64877;50.994;13.650;2023-01-16T11:25:28;1.92;;;0.50;;
76131;SDS011;64877;50.994;13.650;2023-01-16T11:27:55;2.58;;;0.68;;
76131;SDS011;64877;50.994;13.650;2023-01-16T11:30:30;3.28;;;0.60;;
76131;SDS011;64877;50.994;13.650;2023-01-16T11:32:58;3.92;;;0.88;;
76131;SDS011;64877;50.994;13.650;2023-01-16T11:35:29;4.60;;;0.82;;
76131;SDS011;64877;50.994;13.650;2023-01-16T11:37:57;5.45;;;0.98;;
76131;SDS011;64877;50.994;13.650;2023-01-16T11:40:28;2.70;;;0.80;;
76131;SDS011;64877;50.994;13.650;2023-01-16T11:42:58;3.75;;;1.30;;
76131;SDS011;64877;50.994;13.650;2023-01-16T11:45:49;4.03;;;0.77;;
76131;SDS011;64877;50.994;13.650;2023-01-16T11:48:37;2.55;;;0.80;;
76131;SDS011;64877;50.994;13.650;2023-01-16T11:51:03;1.67;;;0.73;;
76131;SDS011;64877;50.994;13.650;2023-01-16T11:53:32;4.07;;;1.10;;
76131;SDS011;64877;50.994;13.650;2023-01-16T12:01:13;3.13;;;0.60;;
76131;SDS011;64877;50.994;13.650;2023-01-16T12:03:52;3.05;;;1.00;;
76131;SDS011;64877;50.994;13.650;2023-01-16T12:15:18;2.95;;;0.85;;
76131;SDS011;64877;50.994;13.650;2023-01-16T12:26:33;2.40;;;0.90;;
76131;SDS011;64877;50.994;13.650;2023-01-16T12:31:53;4.07;;;1.15;;
76131;SDS011;64877;50.994;13.650;2023-01-16T12:34:42;2.53;;;1.00;;
76131;SDS011;64877;50.994;13.650;2023-01-16T12:40:12;7.25;;;1.73;;
76131;SDS011;64877;50.994;13.650;2023-01-16T12:43:04;3.03;;;0.90;;
76131;SDS011;64877;50.994;13.650;2023-01-16T12:45:48;3.17;;;1.00;;
76131;SDS011;64877;50.994;13.650;2023-01-16T12:51:13;4.38;;;0.88;;
76131;SDS011;64877;50.994;13.650;2023-01-16T12:59:10;3.45;;;1.00;;
76131;SDS011;64877;50.994;13.650;2023-01-16T13:01:43;5.13;;;1.23;;
76131;SDS011;64877;50.994;13.650;2023-01-16T13:06:51;2.92;;;1.20;;
76131;SDS011;64877;50.994;13.650;2023-01-16T13:15:44;5.05;;;1.83;;
76131;SDS011;64877;50.994;13.650;2023-01-16T13:18:20;3.97;;;1.30;;
76131;SDS011;64877;50.994;13.650;2023-01-16T13:20:51;3.63;;;1.13;;
76131;SDS011;64877;50.994;13.650;2023-01-16T13:23:21;2.90;;;1.10;;
76131;SDS011;64877;50.994;13.650;2023-01-16T13:25:55;3.97;;;1.10;;
76131;SDS011;64877;50.994;13.650;2023-01-16T13:28:38;3.70;;;1.13;;
76131;SDS011;64877;50.994;13.650;2023-01-16T13:31:18;4.35;;;1.10;;
76131;SDS011;64877;50.994;13.650;2023-01-16T13:33:51;6.65;;;1.20;;
76131;SDS011;64877;50.994;13.650;2023-01-16T13:39:36;3.95;;;1.20;;
76131;SDS011;64877;50.994;13.650;2023-01-16T13:42:05;3.58;;;1.02;;
76131;SDS011;64877;50.994;13.650;2023-01-16T13:44:34;3.47;;;1.17;;
76131;SDS011;64877;50.994;13.650;2023-01-16T13:47:23;3.40;;;1.15;;
76131;SDS011;64877;50.994;13.650;2023-01-16T13:49:54;7.57;;;1.83;;
76131;SDS011;64877;50.994;13.650;2023-01-16T13:52:25;6.10;;;1.58;;
76131;SDS011;64877;50.994;13.650;2023-01-16T13:54:53;2.38;;;1.25;;
76131;SDS011;64877;50.994;13.650;2023-01-16T13:57:22;3.65;;;1.20;;
76131;SDS011;64877;50.994;13.650;2023-01-16T13:59:57;2.85;;;1.20;;
76131;SDS011;64877;50.994;13.650;2023-01-16T14:15:50;5.00;;;1.85;;
76131;SDS011;64877;50.994;13.650;2023-01-16T14:19:21;3.55;;;1.40;;
76131;SDS011;64877;50.994;13.650;2023-01-16T14:21:23;5.10;;;1.63;;
76131;SDS011;64877;50.994;13.650;2023-01-16T14:23:53;4.80;;;1.83;;
76131;SDS011;64877;50.994;13.650;2023-01-16T14:32:04;6.00;;;1.73;;
76131;SDS011;64877;50.994;13.650;2023-01-16T14:37:27;5.78;;;1.40;;
76131;SDS011;64877;50.994;13.650;2023-01-16T14:40:03;3.65;;;1.38;;
76131;SDS011;64877;50.994;13.650;2023-01-16T14:45:28;3.53;;;1.50;;
76131;SDS011;64877;50.994;13.650;2023-01-16T14:57:16;4.10;;;1.67;;
76131;SDS011;64877;50.994;13.650;2023-01-16T15:00:04;4.60;;;1.42;;
76131;SDS011;64877;50.994;13.650;2023-01-16T15:08:15;4.93;;;1.50;;
76131;SDS011;64877;50.994;13.650;2023-01-16T15:10:45;6.10;;;1.55;;
76131;SDS011;64877;50.994;13.650;2023-01-16T15:13:12;4.68;;;1.20;;
76131;SDS011;64877;50.994;13.650;2023-01-16T15:15:53;5.45;;;1.55;;
76131;SDS011;64877;50.994;13.650;2023-01-16T15:18:24;3.95;;;1.38;;
76131;SDS011;64877;50.994;13.650;2023-01-16T15:21:18;2.92;;;1.10;;
76131;SDS011;64877;50.994;13.650;2023-01-16T15:24:03;7.03;;;1.40;;
76131;SDS011;64877;50.994;13.650;2023-01-16T15:29:42;4.50;;;1.48;;
76131;SDS011;64877;50.994;13.650;2023-01-16T15:32:17;4.32;;;1.50;;
76131;SDS011;64877;50.994;13.650;2023-01-16T15:34:46;2.63;;;1.15;;
76131;SDS011;64877;50.994;13.650;2023-01-16T15:37:22;5.00;;;1.40;;
76131;SDS011;64877;50.994;13.650;2023-01-16T15:39:49;6.47;;;1.70;;
76131;SDS011;64877;50.994;13.650;2023-01-16T15:45:17;6.50;;;1.35;;
76131;SDS011;64877;50.994;13.650;2023-01-16T15:53:14;3.78;;;1.20;;
76131;SDS011;64877;50.994;13.650;2023-01-16T15:55:42;4.90;;;1.25;;
76131;SDS011;64877;50.994;13.650;2023-01-16T15:58:13;4.85;;;1.63;;
76131;SDS011;64877;50.994;13.650;2023-01-16T16:00:43;2.90;;;1.10;;
76131;SDS011;64877;50.994;13.650;2023-01-16T16:03:18;4.90;;;1.60;;
76131;SDS011;64877;50.994;13.650;2023-01-16T16:06:06;2.80;;;1.42;;
76131;SDS011;64877;50.994;13.650;2023-01-16T16:08:35;5.30;;;1.77;;
76131;SDS011;64877;50.994;13.650;2023-01-16T16:11:04;3.88;;;1.50;;
76131;SDS011;64877;50.994;13.650;2023-01-16T16:13:50;3.85;;;1.73;;
76131;SDS011;64877;50.994;13.650;2023-01-16T16:16:23;4.88;;;1.73;;
76131;SDS011;64877;50.994;13.650;2023-01-16T16:19:09;5.35;;;1.50;;
76131;SDS011;64877;50.994;13.650;2023-01-16T16:21:54;5.13;;;1.50;;
76131;SDS011;64877;50.994;13.650;2023-01-16T16:24:38;4.88;;;1.65;;
76131;SDS011;64877;50.994;13.650;2023-01-16T16:27:10;5.13;;;2.00;;
76131;SDS011;64877;50.994;13.650;2023-01-16T16:29:39;4.30;;;1.80;;
76131;SDS011;64877;50.994;13.650;2023-01-16T16:32:05;6.65;;;1.75;;
76131;SDS011;64877;50.994;13.650;2023-01-16T16:34:36;6.35;;;1.77;;
76131;SDS011;64877;50.994;13.650;2023-01-16T16:37:02;3.53;;;1.50;;
76131;SDS011;64877;50.994;13.650;2023-01-16T16:47:38;3.97;;;1.50;;
76131;SDS011;64877;50.994;13.650;2023-01-16T16:53:05;4.32;;;1.55;;
76131;SDS011;64877;50.994;13.650;2023-01-16T16:55:42;4.70;;;1.58;;
76131;SDS011;64877;50.994;13.650;2023-01-16T16:58:30;5.43;;;1.88;;
76131;SDS011;64877;50.994;13.650;2023-01-16T17:00:56;6.90;;;1.92;;
76131;SDS011;64877;50.994;13.650;2023-01-16T17:03:23;4.85;;;1.75;;
76131;SDS011;64877;50.994;13.650;2023-01-16T17:05:50;4.35;;;1.83;;
76131;SDS011;64877;50.994;13.650;2023-01-16T17:08:21;4.88;;;1.83;;
76131;SDS011;64877;50.994;13.650;2023-01-16T17:10:49;6.70;;;2.08;;
76131;SDS011;64877;50.994;13.650;2023-01-16T17:13:16;4.28;;;1.83;;
76131;SDS011;64877;50.994;13.650;2023-01-16T17:15:42;3.58;;;1.42;;
76131;SDS011;64877;50.994;13.650;2023-01-16T17:18:09;5.65;;;2.58;;
76131;SDS011;64877;50.994;13.650;2023-01-16T17:20:35;6.30;;;2.28;;
76131;SDS011;64877;50.994;13.650;2023-01-16T17:23:02;2.55;;;1.27;;
76131;SDS011;64877;50.994;13.650;2023-01-16T17:25:28;4.07;;;1.60;;
76131;SDS011;64877;50.994;13.650;2023-01-16T17:27:55;7.60;;;2.00;;
76131;SDS011;64877;50.994;13.650;2023-01-16T17:30:21;4.00;;;1.80;;
76131;SDS011;64877;50.994;13.650;2023-01-16T17:32:55;5.18;;;1.85;;
76131;SDS011;64877;50.994;13.650;2023-01-16T17:35:24;4.63;;;1.60;;
76131;SDS011;64877;50.994;13.650;2023-01-16T17:37:49;4.88;;;1.63;;
76131;SDS011;64877;50.994;13.650;2023-01-16T17:40:15;3.25;;;1.35;;
76131;SDS011;64877;50.994;13.650;2023-01-16T17:42:40;3.40;;;1.27;;
76131;SDS011;64877;50.994;13.650;2023-01-16T17:45:45;3.53;;;1.50;;
76131;SDS011;64877;50.994;13.650;2023-01-16T17:48:28;4.43;;;1.40;;
76131;SDS011;64877;50.994;13.650;2023-01-16T17:50:54;3.63;;;1.40;;
76131;SDS011;64877;50.994;13.650;2023-01-16T17:53:22;2.47;;;1.40;;
76131;SDS011;64877;50.994;13.650;2023-01-16T17:55:49;2.90;;;1.23;;
76131;SDS011;64877;50.994;13.650;2023-01-16T17:58:16;6.07;;;1.60;;
76131;SDS011;64877;50.994;13.650;2023-01-16T18:01:04;2.17;;;1.10;;
76131;SDS011;64877;50.994;13.650;2023-01-16T18:03:31;2.65;;;1.30;;